sensor_id;sensor_type;location;lat;lon;timestamp;temperature;humidity
14049;DHT22;7099;53.922;10.728;2022-11-09T00:04:22;13.30;99.90
14049;DHT22;7099;53.922;10.728;2022-11-09T00:08:47;13.30;99.90
14049;DHT22;7099;53.922;10.728;2022-11-09T00:13:13;13.30;99.90
14049;DHT22;7099;53.922;10.728;2022-11-09T00:17:38;13.30;99.90
14049;DHT22;7099;53.922;10.728;2022-11-09T00:22:03;13.30;99.90
14049;DHT22;7099;53.922;10.728;2022-11-09T00:26:28;13.30;99.90
14049;DHT22;7099;53.922;10.728;2022-11-09T00:30:59;13.30;99.90
14049;DHT22;7099;53.922;10.728;2022-11-09T00:35:25;13.30;99.90
14049;DHT22;7099;53.922;10.728;2022-11-09T00:39:51;13.30;99.90
14049;DHT22;7099;53.922;10.728;2022-11-09T00:44:16;13.30;99.90
14049;DHT22;7099;53.922;10.728;2022-11-09T00:48:41;13.30;99.90
14049;DHT22;7099;53.922;10.728;2022-11-09T00:53:07;13.30;99.90
14049;DHT22;7099;53.922;10.728;2022-11-09T00:57:32;13.30;99.90
14049;DHT22;7099;53.922;10.728;2022-11-09T01:01:57;13.30;99.90
14049;DHT22;7099;53.922;10.728;2022-11-09T01:06:22;13.30;99.90
14049;DHT22;7099;53.922;10.728;2022-11-09T01:10:48;13.30;99.90
14049;DHT22;7099;53.922;10.728;2022-11-09T01:15:14;13.30;99.90
14049;DHT22;7099;53.922;10.728;2022-11-09T01:19:39;13.20;99.90
14049;DHT22;7099;53.922;10.728;2022-11-09T01:24:04;13.20;99.90
14049;DHT22;7099;53.922;10.728;2022-11-09T01:28:29;13.20;99.90
14049;DHT22;7099;53.922;10.728;2022-11-09T01:32:55;13.20;99.90
14049;DHT22;7099;53.922;10.728;2022-11-09T01:37:20;13.20;99.90
14049;DHT22;7099;53.922;10.728;2022-11-09T01:41:45;13.20;99.90
14049;DHT22;7099;53.922;10.728;2022-11-09T01:46:13;13.10;99.90
14049;DHT22;7099;53.922;10.728;2022-11-09T01:50:43;13.10;99.90
14049;DHT22;7099;53.922;10.728;2022-11-09T01:55:16;13.10;99.90
14049;DHT22;7099;53.922;10.728;2022-11-09T01:59:46;13.00;99.90
14049;DHT22;7099;53.922;10.728;2022-11-09T02:08:47;13.00;99.90
14049;DHT22;7099;53.922;10.728;2022-11-09T02:13:13;13.10;99.90
14049;DHT22;7099;53.922;10.728;2022-11-09T02:17:40;13.00;99.90
14049;DHT22;7099;53.922;10.728;2022-11-09T02:22:06;13.00;99.90
14049;DHT22;7099;53.922;10.728;2022-11-09T02:26:42;13.00;99.90
14049;DHT22;7099;53.922;10.728;2022-11-09T02:31:17;13.00;99.90
14049;DHT22;7099;53.922;10.728;2022-11-09T02:35:42;12.90;99.90
14049;DHT22;7099;53.922;10.728;2022-11-09T02:40:08;13.00;99.90
14049;DHT22;7099;53.922;10.728;2022-11-09T02:44:38;13.00;99.90
14049;DHT22;7099;53.922;10.728;2022-11-09T02:49:05;13.00;99.90
14049;DHT22;7099;53.922;10.728;2022-11-09T02:53:30;13.00;99.90
14049;DHT22;7099;53.922;10.728;2022-11-09T02:57:56;13.00;99.90
14049;DHT22;7099;53.922;10.728;2022-11-09T03:02:21;13.00;99.90
14049;DHT22;7099;53.922;10.728;2022-11-09T03:06:47;13.00;99.90
14049;DHT22;7099;53.922;10.728;2022-11-09T03:11:12;13.00;99.90
14049;DHT22;7099;53.922;10.728;2022-11-09T03:15:37;13.00;99.90
14049;DHT22;7099;53.922;10.728;2022-11-09T03:20:02;13.10;99.90
14049;DHT22;7099;53.922;10.728;2022-11-09T03:24:28;13.10;99.90
14049;DHT22;7099;53.922;10.728;2022-11-09T03:28:53;13.10;99.90
14049;DHT22;7099;53.922;10.728;2022-11-09T03:33:18;13.10;99.90
14049;DHT22;7099;53.922;10.728;2022-11-09T03:37:44;13.10;99.90
14049;DHT22;7099;53.922;10.728;2022-11-09T03:42:09;13.10;99.90
14049;DHT22;7099;53.922;10.728;2022-11-09T03:46:34;13.10;99.90
14049;DHT22;7099;53.922;10.728;2022-11-09T03:50:59;13.10;99.90
14049;DHT22;7099;53.922;10.728;2022-11-09T03:55:25;13.10;99.90
14049;DHT22;7099;53.922;10.728;2022-11-09T03:59:50;13.20;99.90
14049;DHT22;7099;53.922;10.728;2022-11-09T04:04:15;13.20;99.90
14049;DHT22;7099;53.922;10.728;2022-11-09T04:08:41;13.20;99.90
14049;DHT22;7099;53.922;10.728;2022-11-09T04:13:12;13.20;99.90
14049;DHT22;7099;53.922;10.728;2022-11-09T04:17:37;13.20;99.90
14049;DHT22;7099;53.922;10.728;2022-11-09T04:22:02;13.20;99.90
14049;DHT22;7099;53.922;10.728;2022-11-09T04:26:27;13.20;99.90
14049;DHT22;7099;53.922;10.728;2022-11-09T04:30:52;13.20;99.90
14049;DHT22;7099;53.922;10.728;2022-11-09T04:35:18;13.20;99.90
14049;DHT22;7099;53.922;10.728;2022-11-09T04:39:43;13.20;99.90
14049;DHT22;7099;53.922;10.728;2022-11-09T04:44:08;13.20;99.90
14049;DHT22;7099;53.922;10.728;2022-11-09T04:48:33;13.20;99.90
14049;DHT22;7099;53.922;10.728;2022-11-09T04:53:05;13.20;99.90
14049;DHT22;7099;53.922;10.728;2022-11-09T04:57:31;13.10;99.90
14049;DHT22;7099;53.922;10.728;2022-11-09T05:01:56;13.10;99.90
14049;DHT22;7099;53.922;10.728;2022-11-09T05:06:22;13.10;99.90
14049;DHT22;7099;53.922;10.728;2022-11-09T05:10:56;13.10;99.90
14049;DHT22;7099;53.922;10.728;2022-11-09T05:15:21;13.10;99.90
14049;DHT22;7099;53.922;10.728;2022-11-09T05:19:46;13.10;99.90
14049;DHT22;7099;53.922;10.728;2022-11-09T05:24:14;13.10;99.90
14049;DHT22;7099;53.922;10.728;2022-11-09T05:28:39;13.10;99.90
14049;DHT22;7099;53.922;10.728;2022-11-09T05:33:04;13.10;99.90
14049;DHT22;7099;53.922;10.728;2022-11-09T05:37:29;13.10;99.90
14049;DHT22;7099;53.922;10.728;2022-11-09T05:41:54;13.10;99.90
14049;DHT22;7099;53.922;10.728;2022-11-09T05:46:19;13.00;99.90
14049;DHT22;7099;53.922;10.728;2022-11-09T05:50:45;13.40;99.90
14049;DHT22;7099;53.922;10.728;2022-11-09T05:55:10;13.20;99.90
14049;DHT22;7099;53.922;10.728;2022-11-09T05:59:35;13.10;99.90
14049;DHT22;7099;53.922;10.728;2022-11-09T06:04:00;13.10;99.90
14049;DHT22;7099;53.922;10.728;2022-11-09T06:08:25;13.10;99.90
14049;DHT22;7099;53.922;10.728;2022-11-09T06:12:50;13.00;99.90
14049;DHT22;7099;53.922;10.728;2022-11-09T06:17:15;13.00;99.90
14049;DHT22;7099;53.922;10.728;2022-11-09T06:21:41;13.10;99.90
14049;DHT22;7099;53.922;10.728;2022-11-09T06:26:07;13.10;99.90
14049;DHT22;7099;53.922;10.728;2022-11-09T06:30:33;13.20;99.90
14049;DHT22;7099;53.922;10.728;2022-11-09T06:34:59;13.20;99.90
14049;DHT22;7099;53.922;10.728;2022-11-09T06:39:24;13.20;99.90
14049;DHT22;7099;53.922;10.728;2022-11-09T06:43:49;13.20;99.90
14049;DHT22;7099;53.922;10.728;2022-11-09T06:48:14;13.20;99.90
14049;DHT22;7099;53.922;10.728;2022-11-09T06:52:39;13.20;99.90
14049;DHT22;7099;53.922;10.728;2022-11-09T06:57:05;13.20;99.90
14049;DHT22;7099;53.922;10.728;2022-11-09T07:01:30;13.20;99.90
14049;DHT22;7099;53.922;10.728;2022-11-09T07:05:55;13.20;99.90
14049;DHT22;7099;53.922;10.728;2022-11-09T07:10:20;13.30;99.90
14049;DHT22;7099;53.922;10.728;2022-11-09T07:14:45;13.30;99.90
14049;DHT22;7099;53.922;10.728;2022-11-09T07:19:10;13.30;99.90
14049;DHT22;7099;53.922;10.728;2022-11-09T07:23:36;13.40;99.90
14049;DHT22;7099;53.922;10.728;2022-11-09T07:28:05;13.40;99.90
14049;DHT22;7099;53.922;10.728;2022-11-09T07:32:32;13.50;99.90
14049;DHT22;7099;53.922;10.728;2022-11-09T07:37:18;13.50;99.90
14049;DHT22;7099;53.922;10.728;2022-11-09T07:41:45;13.50;99.90
14049;DHT22;7099;53.922;10.728;2022-11-09T07:50:20;13.50;99.90
14049;DHT22;7099;53.922;10.728;2022-11-09T07:54:25;13.60;99.90
14049;DHT22;7099;53.922;10.728;2022-11-09T07:58:30;13.60;99.90
14049;DHT22;7099;53.922;10.728;2022-11-09T08:02:35;13.70;99.90
14049;DHT22;7099;53.922;10.728;2022-11-09T08:06:40;13.70;99.90
14049;DHT22;7099;53.922;10.728;2022-11-09T08:10:45;13.70;99.90
14049;DHT22;7099;53.922;10.728;2022-11-09T08:14:54;13.70;99.90
14049;DHT22;7099;53.922;10.728;2022-11-09T08:18:59;13.80;99.90
14049;DHT22;7099;53.922;10.728;2022-11-09T08:23:04;13.80;99.90
14049;DHT22;7099;53.922;10.728;2022-11-09T08:27:09;13.80;99.90
14049;DHT22;7099;53.922;10.728;2022-11-09T08:31:14;13.80;99.90
14049;DHT22;7099;53.922;10.728;2022-11-09T08:35:20;13.80;99.90
14049;DHT22;7099;53.922;10.728;2022-11-09T08:39:25;13.90;99.90
14049;DHT22;7099;53.922;10.728;2022-11-09T08:43:30;13.90;99.90
14049;DHT22;7099;53.922;10.728;2022-11-09T08:47:35;14.00;99.90
14049;DHT22;7099;53.922;10.728;2022-11-09T08:51:42;14.10;99.90
14049;DHT22;7099;53.922;10.728;2022-11-09T08:55:46;14.20;99.90
14049;DHT22;7099;53.922;10.728;2022-11-09T08:59:53;14.30;99.90
14049;DHT22;7099;53.922;10.728;2022-11-09T09:03:57;14.30;99.90
14049;DHT22;7099;53.922;10.728;2022-11-09T09:08:03;14.40;99.90
14049;DHT22;7099;53.922;10.728;2022-11-09T09:12:09;14.50;99.90
14049;DHT22;7099;53.922;10.728;2022-11-09T09:16:14;14.50;99.90
14049;DHT22;7099;53.922;10.728;2022-11-09T09:20:19;14.60;99.90
14049;DHT22;7099;53.922;10.728;2022-11-09T09:24:24;14.70;99.90
14049;DHT22;7099;53.922;10.728;2022-11-09T09:28:30;14.80;99.90
14049;DHT22;7099;53.922;10.728;2022-11-09T09:32:35;14.90;99.90
14049;DHT22;7099;53.922;10.728;2022-11-09T09:36:40;14.90;99.90
14049;DHT22;7099;53.922;10.728;2022-11-09T09:49:29;15.10;99.90
14049;DHT22;7099;53.922;10.728;2022-11-09T09:53:36;15.30;99.90
14049;DHT22;7099;53.922;10.728;2022-11-09T09:57:59;15.40;99.90
14049;DHT22;7099;53.922;10.728;2022-11-09T10:02:33;15.50;99.90
14049;DHT22;7099;53.922;10.728;2022-11-09T10:24:57;16.00;99.90
14049;DHT22;7099;53.922;10.728;2022-11-09T10:29:34;16.00;99.90
14049;DHT22;7099;53.922;10.728;2022-11-09T10:33:48;16.20;99.90
14049;DHT22;7099;53.922;10.728;2022-11-09T10:38:00;16.30;99.90
14049;DHT22;7099;53.922;10.728;2022-11-09T10:42:04;16.30;99.90
14049;DHT22;7099;53.922;10.728;2022-11-09T10:46:09;16.50;99.90
14049;DHT22;7099;53.922;10.728;2022-11-09T10:50:48;16.50;99.90
14049;DHT22;7099;53.922;10.728;2022-11-09T10:55:21;16.60;99.90
14049;DHT22;7099;53.922;10.728;2022-11-09T11:03:42;16.60;99.90
14049;DHT22;7099;53.922;10.728;2022-11-09T11:07:48;16.60;99.90
14049;DHT22;7099;53.922;10.728;2022-11-09T11:12:17;16.60;99.90
14049;DHT22;7099;53.922;10.728;2022-11-09T11:16:28;16.70;99.90
14049;DHT22;7099;53.922;10.728;2022-11-09T11:20:37;16.70;99.90
14049;DHT22;7099;53.922;10.728;2022-11-09T11:28:52;16.80;99.90
14049;DHT22;7099;53.922;10.728;2022-11-09T11:33:12;16.80;99.90
14049;DHT22;7099;53.922;10.728;2022-11-09T11:37:47;16.80;99.90
14049;DHT22;7099;53.922;10.728;2022-11-09T11:47:08;16.90;99.90
14049;DHT22;7099;53.922;10.728;2022-11-09T11:56:20;17.00;99.90
14049;DHT22;7099;53.922;10.728;2022-11-09T12:00:27;17.10;99.90
14049;DHT22;7099;53.922;10.728;2022-11-09T12:04:44;17.10;99.90
14049;DHT22;7099;53.922;10.728;2022-11-09T12:27:25;16.90;99.90
14049;DHT22;7099;53.922;10.728;2022-11-09T12:36:27;17.00;99.90
14049;DHT22;7099;53.922;10.728;2022-11-09T12:40:43;17.10;99.90
14049;DHT22;7099;53.922;10.728;2022-11-09T12:49:38;17.10;99.90
14049;DHT22;7099;53.922;10.728;2022-11-09T12:53:44;17.00;99.90
14049;DHT22;7099;53.922;10.728;2022-11-09T12:57:49;16.90;99.90
14049;DHT22;7099;53.922;10.728;2022-11-09T13:01:56;16.90;99.90
14049;DHT22;7099;53.922;10.728;2022-11-09T13:06:13;16.90;99.90
14049;DHT22;7099;53.922;10.728;2022-11-09T13:10:28;17.00;99.90
14049;DHT22;7099;53.922;10.728;2022-11-09T13:14:36;17.00;99.90
14049;DHT22;7099;53.922;10.728;2022-11-09T13:26:57;17.10;99.90
14049;DHT22;7099;53.922;10.728;2022-11-09T13:31:03;17.20;99.90
14049;DHT22;7099;53.922;10.728;2022-11-09T13:39:45;17.10;99.90
14049;DHT22;7099;53.922;10.728;2022-11-09T13:44:16;17.00;99.90
14049;DHT22;7099;53.922;10.728;2022-11-09T13:48:34;17.00;99.90
14049;DHT22;7099;53.922;10.728;2022-11-09T13:52:44;17.00;99.90
14049;DHT22;7099;53.922;10.728;2022-11-09T13:56:52;17.20;99.90
14049;DHT22;7099;53.922;10.728;2022-11-09T14:00:57;17.20;99.90
14049;DHT22;7099;53.922;10.728;2022-11-09T14:05:02;17.30;99.90
14049;DHT22;7099;53.922;10.728;2022-11-09T14:09:15;17.30;99.90
14049;DHT22;7099;53.922;10.728;2022-11-09T14:22:39;17.10;99.90
14049;DHT22;7099;53.922;10.728;2022-11-09T14:31:27;17.00;99.90
14049;DHT22;7099;53.922;10.728;2022-11-09T14:35:34;16.80;99.90
14049;DHT22;7099;53.922;10.728;2022-11-09T14:39:40;16.80;99.90
14049;DHT22;7099;53.922;10.728;2022-11-09T14:43:47;16.70;99.90
14049;DHT22;7099;53.922;10.728;2022-11-09T14:47:57;16.70;99.90
14049;DHT22;7099;53.922;10.728;2022-11-09T14:52:03;16.60;99.90
14049;DHT22;7099;53.922;10.728;2022-11-09T14:56:10;16.60;99.90
14049;DHT22;7099;53.922;10.728;2022-11-09T15:00:23;16.60;99.90
14049;DHT22;7099;53.922;10.728;2022-11-09T15:04:28;16.50;99.90
14049;DHT22;7099;53.922;10.728;2022-11-09T15:08:37;16.30;99.90
14049;DHT22;7099;53.922;10.728;2022-11-09T15:12:55;16.20;99.90
14049;DHT22;7099;53.922;10.728;2022-11-09T15:21:31;15.90;99.90
14049;DHT22;7099;53.922;10.728;2022-11-09T15:29:45;15.80;99.90
14049;DHT22;7099;53.922;10.728;2022-11-09T15:33:52;15.70;99.90
14049;DHT22;7099;53.922;10.728;2022-11-09T15:37:59;15.60;99.90
14049;DHT22;7099;53.922;10.728;2022-11-09T15:42:04;15.50;99.90
14049;DHT22;7099;53.922;10.728;2022-11-09T15:46:15;15.40;99.90
14049;DHT22;7099;53.922;10.728;2022-11-09T15:50:26;15.30;99.90
14049;DHT22;7099;53.922;10.728;2022-11-09T15:54:31;15.20;99.90
14049;DHT22;7099;53.922;10.728;2022-11-09T15:58:36;15.20;99.90
14049;DHT22;7099;53.922;10.728;2022-11-09T16:02:41;15.10;99.90
14049;DHT22;7099;53.922;10.728;2022-11-09T16:06:49;15.00;99.90
14049;DHT22;7099;53.922;10.728;2022-11-09T16:10:54;14.90;99.90
14049;DHT22;7099;53.922;10.728;2022-11-09T16:14:59;14.80;99.90
14049;DHT22;7099;53.922;10.728;2022-11-09T16:19:04;14.80;99.90
14049;DHT22;7099;53.922;10.728;2022-11-09T16:23:09;14.70;99.90
14049;DHT22;7099;53.922;10.728;2022-11-09T16:27:14;14.60;99.90
14049;DHT22;7099;53.922;10.728;2022-11-09T16:31:39;14.50;99.90
14049;DHT22;7099;53.922;10.728;2022-11-09T16:35:57;14.40;99.90
14049;DHT22;7099;53.922;10.728;2022-11-09T16:40:07;14.40;99.90
14049;DHT22;7099;53.922;10.728;2022-11-09T16:44:17;14.30;99.90
14049;DHT22;7099;53.922;10.728;2022-11-09T16:48:25;14.30;99.90
14049;DHT22;7099;53.922;10.728;2022-11-09T16:52:30;14.20;99.90
14049;DHT22;7099;53.922;10.728;2022-11-09T16:56:35;14.20;99.90
14049;DHT22;7099;53.922;10.728;2022-11-09T17:00:47;14.20;99.90
14049;DHT22;7099;53.922;10.728;2022-11-09T17:05:13;14.20;99.90
14049;DHT22;7099;53.922;10.728;2022-11-09T17:09:18;14.10;99.90
14049;DHT22;7099;53.922;10.728;2022-11-09T17:13:24;14.10;99.90
14049;DHT22;7099;53.922;10.728;2022-11-09T17:17:29;14.10;99.90
14049;DHT22;7099;53.922;10.728;2022-11-09T17:21:34;14.00;99.90
14049;DHT22;7099;53.922;10.728;2022-11-09T17:25:39;14.00;99.90
14049;DHT22;7099;53.922;10.728;2022-11-09T17:29:44;14.00;99.90
14049;DHT22;7099;53.922;10.728;2022-11-09T17:33:49;14.00;99.90
14049;DHT22;7099;53.922;10.728;2022-11-09T17:37:54;14.00;99.90
14049;DHT22;7099;53.922;10.728;2022-11-09T17:41:59;14.00;99.90
14049;DHT22;7099;53.922;10.728;2022-11-09T17:46:05;14.00;99.90
14049;DHT22;7099;53.922;10.728;2022-11-09T17:50:13;14.00;99.90
14049;DHT22;7099;53.922;10.728;2022-11-09T17:54:18;14.00;99.90
14049;DHT22;7099;53.922;10.728;2022-11-09T17:58:23;14.00;99.90
14049;DHT22;7099;53.922;10.728;2022-11-09T18:02:29;14.00;99.90
14049;DHT22;7099;53.922;10.728;2022-11-09T18:06:33;14.00;99.90
14049;DHT22;7099;53.922;10.728;2022-11-09T18:10:42;13.90;99.90
14049;DHT22;7099;53.922;10.728;2022-11-09T18:14:49;13.90;99.90
14049;DHT22;7099;53.922;10.728;2022-11-09T18:19:00;13.80;99.90
14049;DHT22;7099;53.922;10.728;2022-11-09T18:23:06;13.90;99.90
14049;DHT22;7099;53.922;10.728;2022-11-09T18:27:12;13.90;99.90
14049;DHT22;7099;53.922;10.728;2022-11-09T18:31:16;13.90;99.90
14049;DHT22;7099;53.922;10.728;2022-11-09T18:35:21;13.90;99.90
14049;DHT22;7099;53.922;10.728;2022-11-09T18:39:27;13.80;99.90
14049;DHT22;7099;53.922;10.728;2022-11-09T18:43:32;13.70;99.90
14049;DHT22;7099;53.922;10.728;2022-11-09T18:47:38;13.70;99.90
14049;DHT22;7099;53.922;10.728;2022-11-09T18:51:42;13.60;99.90
14049;DHT22;7099;53.922;10.728;2022-11-09T18:55:48;13.60;99.90
14049;DHT22;7099;53.922;10.728;2022-11-09T18:59:53;13.50;99.90
14049;DHT22;7099;53.922;10.728;2022-11-09T19:03:58;13.40;99.90
14049;DHT22;7099;53.922;10.728;2022-11-09T19:08:05;13.40;99.90
14049;DHT22;7099;53.922;10.728;2022-11-09T19:12:10;13.40;99.90
14049;DHT22;7099;53.922;10.728;2022-11-09T19:16:15;13.40;99.90
14049;DHT22;7099;53.922;10.728;2022-11-09T19:20:21;13.40;99.90
14049;DHT22;7099;53.922;10.728;2022-11-09T19:24:27;13.30;99.90
14049;DHT22;7099;53.922;10.728;2022-11-09T19:28:34;13.30;99.90
14049;DHT22;7099;53.922;10.728;2022-11-09T19:32:39;13.30;99.90
14049;DHT22;7099;53.922;10.728;2022-11-09T19:36:44;13.30;99.90
14049;DHT22;7099;53.922;10.728;2022-11-09T19:40:53;13.30;99.90
14049;DHT22;7099;53.922;10.728;2022-11-09T19:44:58;13.30;99.90
14049;DHT22;7099;53.922;10.728;2022-11-09T19:49:03;13.30;99.90
14049;DHT22;7099;53.922;10.728;2022-11-09T19:53:10;13.20;99.90
14049;DHT22;7099;53.922;10.728;2022-11-09T19:57:15;13.20;99.90
14049;DHT22;7099;53.922;10.728;2022-11-09T20:01:21;13.20;99.90
14049;DHT22;7099;53.922;10.728;2022-11-09T20:05:26;13.20;99.90
14049;DHT22;7099;53.922;10.728;2022-11-09T20:09:34;13.20;99.90
14049;DHT22;7099;53.922;10.728;2022-11-09T20:13:39;13.20;99.90
14049;DHT22;7099;53.922;10.728;2022-11-09T20:17:45;13.20;99.90
14049;DHT22;7099;53.922;10.728;2022-11-09T20:21:50;13.10;99.90
14049;DHT22;7099;53.922;10.728;2022-11-09T20:26:06;13.10;99.90
14049;DHT22;7099;53.922;10.728;2022-11-09T20:30:12;13.20;99.90
14049;DHT22;7099;53.922;10.728;2022-11-09T20:34:17;13.10;99.90
14049;DHT22;7099;53.922;10.728;2022-11-09T20:38:22;13.10;99.90
14049;DHT22;7099;53.922;10.728;2022-11-09T20:42:27;13.10;99.90
14049;DHT22;7099;53.922;10.728;2022-11-09T20:46:32;13.10;99.90
14049;DHT22;7099;53.922;10.728;2022-11-09T20:50:40;13.10;99.90
14049;DHT22;7099;53.922;10.728;2022-11-09T20:54:45;13.10;99.90
14049;DHT22;7099;53.922;10.728;2022-11-09T20:58:50;13.00;99.90
14049;DHT22;7099;53.922;10.728;2022-11-09T21:02:55;13.00;99.90
14049;DHT22;7099;53.922;10.728;2022-11-09T21:07:00;13.00;99.90
14049;DHT22;7099;53.922;10.728;2022-11-09T21:11:06;13.00;99.90
14049;DHT22;7099;53.922;10.728;2022-11-09T21:15:12;13.00;99.90
14049;DHT22;7099;53.922;10.728;2022-11-09T21:19:18;13.10;99.90
14049;DHT22;7099;53.922;10.728;2022-11-09T21:23:23;13.10;99.90
14049;DHT22;7099;53.922;10.728;2022-11-09T21:27:28;13.00;99.90
14049;DHT22;7099;53.922;10.728;2022-11-09T21:31:52;13.00;99.90
14049;DHT22;7099;53.922;10.728;2022-11-09T21:35:56;13.00;99.90
14049;DHT22;7099;53.922;10.728;2022-11-09T21:40:02;13.00;99.90
14049;DHT22;7099;53.922;10.728;2022-11-09T21:44:09;12.90;99.90
14049;DHT22;7099;53.922;10.728;2022-11-09T21:48:14;13.00;99.90
14049;DHT22;7099;53.922;10.728;2022-11-09T21:52:19;13.00;99.90
14049;DHT22;7099;53.922;10.728;2022-11-09T21:56:26;12.90;99.90
14049;DHT22;7099;53.922;10.728;2022-11-09T22:00:31;13.00;99.90
14049;DHT22;7099;53.922;10.728;2022-11-09T22:04:36;12.90;99.90
14049;DHT22;7099;53.922;10.728;2022-11-09T22:08:41;13.00;99.90
14049;DHT22;7099;53.922;10.728;2022-11-09T22:12:46;13.00;99.90
14049;DHT22;7099;53.922;10.728;2022-11-09T22:17:14;12.90;99.90
14049;DHT22;7099;53.922;10.728;2022-11-09T22:21:21;12.90;99.90
14049;DHT22;7099;53.922;10.728;2022-11-09T22:25:26;12.90;99.90
14049;DHT22;7099;53.922;10.728;2022-11-09T22:29:31;12.90;99.90
14049;DHT22;7099;53.922;10.728;2022-11-09T22:33:36;13.00;99.90
14049;DHT22;7099;53.922;10.728;2022-11-09T22:37:41;12.90;99.90
14049;DHT22;7099;53.922;10.728;2022-11-09T22:41:46;12.90;99.90
14049;DHT22;7099;53.922;10.728;2022-11-09T22:45:51;12.90;99.90
14049;DHT22;7099;53.922;10.728;2022-11-09T22:49:56;12.80;99.90
14049;DHT22;7099;53.922;10.728;2022-11-09T22:54:01;12.80;99.90
14049;DHT22;7099;53.922;10.728;2022-11-09T22:58:06;12.80;99.90
14049;DHT22;7099;53.922;10.728;2022-11-09T23:02:10;12.70;99.90
14049;DHT22;7099;53.922;10.728;2022-11-09T23:06:17;12.60;99.90
14049;DHT22;7099;53.922;10.728;2022-11-09T23:10:23;12.50;99.90
14049;DHT22;7099;53.922;10.728;2022-11-09T23:14:28;12.40;99.90
14049;DHT22;7099;53.922;10.728;2022-11-09T23:18:52;12.30;99.90
14049;DHT22;7099;53.922;10.728;2022-11-09T23:22:57;12.30;99.90
14049;DHT22;7099;53.922;10.728;2022-11-09T23:27:02;12.30;99.90
14049;DHT22;7099;53.922;10.728;2022-11-09T23:31:09;12.20;99.90
14049;DHT22;7099;53.922;10.728;2022-11-09T23:35:17;12.20;99.90
14049;DHT22;7099;53.922;10.728;2022-11-09T23:39:22;12.10;99.90
14049;DHT22;7099;53.922;10.728;2022-11-09T23:43:27;12.00;99.90
14049;DHT22;7099;53.922;10.728;2022-11-09T23:47:32;12.00;99.90
14049;DHT22;7099;53.922;10.728;2022-11-09T23:51:37;12.00;99.90
14049;DHT22;7099;53.922;10.728;2022-11-09T23:55:42;11.90;99.90
14049;DHT22;7099;53.922;10.728;2022-11-09T23:59:47;11.90;99.90
